Daily Weather Observations for Burdell (Townsville)
For Monday 18th February 2019

This table is designed for ease of comparison to Bureau of Meteorology recorded weather data.

Station Details Name: BURDELL Lat: -19.24 Lon: 146.69 Height: 8.5 m
Date/Time
EST
Temp
°C
App
Temp
°C
Dew
Point
°C
Rel
Hum
%
Delta-T
°C
Wind Press
QNH
hPa
Press
MSL
hPa
Rain since
9am
mm
Dir  Spd
km/h
Gust
km/h
Spd
kts
Gust
kts
18/11:30pm 28.5 34.0 25.3 83 2.4 NNW 15 21 8 11 1006.5 1006.5 0.0
18/11:00pm 28.6 34.2 25.4 83 2.4 NNW 14 16 8 9 1006.7 1006.7 0.0
18/10:30pm 28.7 34.3 25.3 82 2.5 NNW 16 18 8 10 1006.7 1006.7 0.0
18/10:00pm 28.7 34.3 25.3 82 2.5 NNW 9 13 5 7 1006.5 1006.5 0.0
18/09:30pm 28.7 34.3 25.3 82 2.5 NNW 11 16 6 9 1006.2 1006.2 0.0
18/09:00pm 28.8 34.4 25.2 81 2.7 NNW 10 13 6 7 1006.1 1006.1 0.0
18/08:30pm 28.7 34.1 25.1 81 2.7 NNW 14 18 7 10 1006.1 1006.1 0.0
18/08:00pm 28.5 33.6 24.9 81 2.7 NNW 11 16 6 9 1005.5 1005.5 0.0
18/07:30pm 28.3 33.0 24.7 81 2.6 N 11 18 6 10 1005.2 1005.2 0.0
18/07:00pm 28.5 33.4 24.7 80 2.8 NNW 12 16 7 9 1004.8 1004.8 0.0
18/06:30pm 29.1 34.4 24.7 78 3.2 NNW 14 18 8 10 1004.5 1004.5 0.0
18/06:00pm 30.1 36.0 24.9 74 3.8 NNW 15 18 8 10 1004.3 1004.3 0.0
18/05:30pm 30.8 37.7 25.2 72 4.1 N 16 18 9 10 1004.2 1004.2 0.0
18/05:00pm 31.2 38.1 25.1 70 4.5 NNW 16 21 8 11 1004.0 1004.0 0.0
18/04:30pm 31.3 38.5 25.3 71 4.5 N 17 26 9 14 1004.0 1004.0 0.0
18/04:00pm 31.2 38.5 25.4 72 4.3 NNW 19 23 10 13 1004.1 1004.1 0.0
18/03:30pm 30.7 37.4 25.1 73 4.1 N 15 21 8 11 1004.3 1004.3 0.0
18/03:00pm 31.1 38.2 25.2 71 4.4 NNW 19 23 10 13 1004.6 1004.6 0.0
18/02:30pm 29.9 35.8 24.8 74 3.8 NNW 16 23 9 13 1005.2 1005.2 0.0
18/02:00pm 31.7 38.9 25.2 69 4.8 NNW 18 23 10 13 1005.5 1005.5 0.0
18/01:30pm 31.7 39.2 25.3 69 4.7 NNW 17 21 9 11 1006.3 1006.3 0.0
18/01:00pm 31.8 39.1 25.4 70 4.8 N 20 26 11 14 1006.6 1006.6 0.0
18/12:30pm 31.6 39.3 25.5 70 4.5 NNW 19 23 10 13 1006.8 1006.8 0.0
18/12:00pm 31.3 38.7 25.4 71 4.4 NNW 16 21 9 11 1007.1 1007.1 0.0
18/11:30am 31.2 38.5 25.6 73 4.2 NNW 18 21 10 11 1007.5 1007.5 0.0
18/11:00am 30.9 37.6 25.1 72 4.3 NNW 16 23 8 13 1008.0 1008.0 0.0
18/10:30am 30.7 37.1 24.8 71 4.3 N 15 23 8 13 1008.3 1008.3 0.0
18/10:00am 30.8 36.8 24.6 70 4.6 N 10 16 5 9 1008.5 1008.5 0.0
18/09:30am 30.3 36.3 24.7 73 4.1 NNW 8 13 5 7 1008.4 1008.4 0.0
18/09:00am 29.1 34.0 24.3 76 3.5 N 6 8 3 4 1008.4 1008.4 0.0
18/08:30am 29.5 35.7 24.6 75 3.6 ENE 2 8 1 4 1008.3 1008.3 0.0
18/08:00am 29.3 35.0 24.7 78 3.4 ESE 2 5 1 3 1008.1 1008.1 0.0
18/07:30am 27.6 33.2 24.3 84 2.4 SSE 3 5 1 3 1007.7 1007.7 0.0
18/07:00am 26.0 31.7 23.9 89 1.5 CALM 0 0 0 0 1007.4 1007.4 0.0
18/06:30am 24.9 30.3 23.4 92 1.1 CALM 0 0 0 0 1007.0 1007.0 0.0
18/06:00am 24.7 30.0 23.2 92 1.1 CALM 0 0 0 0 1006.8 1006.8 0.0
18/05:30am 25.0 30.4 23.3 91 1.2 CALM 0 0 0 0 1006.8 1006.8 0.0
18/05:00am 25.1 30.4 23.2 89 1.4 CALM 0 0 0 0 1006.4 1006.4 0.0
18/04:30am 25.2 30.6 23.3 89 1.4 CALM 0 0 0 0 1006.3 1006.3 0.0
18/04:00am 25.5 30.9 23.4 88 1.5 CALM 0 0 0 0 1006.3 1006.3 0.0
18/03:30am 25.7 31.2 23.4 87 1.7 CALM 0 0 0 0 1006.3 1006.3 0.0
18/03:00am 25.8 31.2 23.4 87 1.7 CALM 0 0 0 0 1006.4 1006.4 0.0
18/02:30am 26.2 31.6 23.6 86 1.9 ENE 1 2 1 1 1006.5 1006.5 0.0
18/02:00am 26.6 32.2 24.1 86 1.8 ENE 2 5 1 3 1006.6 1006.6 0.0
18/01:30am 26.8 32.6 24.3 86 1.8 N 2 5 1 3 1006.7 1006.7 0.0
18/01:00am 27.2 32.2 24.3 84 2.1 N 6 10 3 6 1006.9 1006.9 0.0
18/12:30am 26.9 32.6 24.2 85 2.0 E 2 5 1 3 1007.2 1007.2 0.0
18/12:00am 26.7 32.3 24.2 86 1.8 ENE 3 5 2 3 1007.5 1007.5 0.0
 


NOTE: The apparent temperature specified in the table above is calculated using both the Heat Index and Steadman method. This differs to the Bureau of Meteorology's calculation which uses the Steadman method alone.